createdAt,value
2023-04-05T00:01:17.566Z,42.61
2023-04-05T00:02:58.915Z,44.49
2023-04-05T00:04:40.367Z,43.73
2023-04-05T00:06:21.728Z,41.70
2023-04-05T00:08:03.000Z,42.21
2023-04-05T00:09:44.254Z,42.34
2023-04-05T00:11:25.538Z,43.12
2023-04-05T00:13:06.834Z,42.91
2023-04-05T00:14:48.152Z,39.82
2023-04-05T00:16:29.481Z,41.31
2023-04-05T00:18:10.879Z,40.10
2023-04-05T00:19:52.167Z,40.68
2023-04-05T00:21:33.444Z,41.35
2023-04-05T00:23:14.725Z,41.02
2023-04-05T00:24:56.000Z,41.56
2023-04-05T00:26:37.291Z,41.73
2023-04-05T00:28:18.617Z,40.59
2023-04-05T00:29:59.884Z,40.13
2023-04-05T00:31:41.219Z,40.28
2023-04-05T00:33:22.593Z,38.41
2023-04-05T00:35:03.854Z,39.79
2023-04-05T00:36:45.140Z,40.09
2023-04-05T00:38:26.432Z,38.86
2023-04-05T00:40:07.715Z,38.36
2023-04-05T00:41:49.017Z,38.45
2023-04-05T00:43:30.302Z,38.56
2023-04-05T00:45:11.648Z,38.19
2023-04-05T00:46:52.939Z,36.89
2023-04-05T00:48:34.243Z,36.42
2023-04-05T00:50:15.551Z,36.66
2023-04-05T00:51:56.827Z,37.18
2023-04-05T00:53:38.104Z,39.13
2023-04-05T00:55:19.370Z,40.61
2023-04-05T00:57:00.690Z,38.52
2023-04-05T00:58:42.007Z,38.64
2023-04-05T01:00:23.315Z,40.67
2023-04-05T01:02:04.611Z,40.45
2023-04-05T01:03:45.985Z,40.23
2023-04-05T01:05:27.311Z,39.21
2023-04-05T01:07:08.621Z,41.20
2023-04-05T01:08:49.920Z,40.70
2023-04-05T01:10:31.256Z,41.68
2023-04-05T01:12:12.578Z,42.07
2023-04-05T01:13:53.893Z,42.86
2023-04-05T01:15:35.195Z,40.23
2023-04-05T01:17:16.559Z,41.14
2023-04-05T01:18:57.966Z,41.99
2023-04-05T01:20:39.473Z,41.09
2023-04-05T01:22:21.351Z,40.62
2023-04-05T01:24:02.695Z,42.72
2023-04-05T01:25:43.986Z,42.02
2023-04-05T01:27:25.288Z,41.52
2023-04-05T01:29:06.601Z,40.95
2023-04-05T01:30:47.916Z,40.50
2023-04-05T01:32:29.254Z,40.29
2023-04-05T01:34:10.615Z,41.58
2023-04-05T01:35:51.967Z,40.94
2023-04-05T01:37:33.298Z,40.00
2023-04-05T01:39:14.582Z,38.85
2023-04-05T01:40:55.866Z,39.07
2023-04-05T01:42:37.177Z,40.58
2023-04-05T01:44:18.506Z,41.10
2023-04-05T01:45:59.794Z,40.90
2023-04-05T01:47:41.093Z,40.42
2023-04-05T01:49:22.399Z,41.57
2023-04-05T01:51:03.739Z,41.96
2023-04-05T01:52:45.054Z,42.72
2023-04-05T01:54:26.350Z,42.69
2023-04-05T01:56:07.609Z,41.89
2023-04-05T01:57:48.913Z,41.36
2023-04-05T01:59:30.304Z,41.16
2023-04-05T02:01:11.653Z,41.20
2023-04-05T02:02:53.039Z,42.77
2023-04-05T02:04:34.390Z,45.09
2023-04-05T02:06:15.670Z,44.75
2023-04-05T02:07:57.012Z,44.75
2023-04-05T02:09:38.351Z,42.53
2023-04-05T02:11:19.658Z,43.11
2023-04-05T02:13:00.970Z,42.25
2023-04-05T02:14:42.261Z,44.32
2023-04-05T02:16:23.635Z,43.11
2023-04-05T02:18:05.059Z,44.35
2023-04-05T02:19:46.385Z,45.67
2023-04-05T02:21:27.670Z,45.33
2023-04-05T02:23:08.972Z,44.69
2023-04-05T02:24:50.229Z,43.95
2023-04-05T02:26:31.530Z,44.93
2023-04-05T02:28:12.832Z,44.25
2023-04-05T02:29:54.162Z,45.52
2023-04-05T02:31:35.488Z,43.33
2023-04-05T02:33:16.852Z,41.47
2023-04-05T02:34:58.127Z,42.76
2023-04-05T02:36:39.447Z,43.01
2023-04-05T02:38:20.737Z,41.74
2023-04-05T02:40:02.032Z,40.08
2023-04-05T02:41:43.344Z,39.96
2023-04-05T02:43:24.640Z,40.05
2023-04-05T02:45:05.939Z,40.19
2023-04-05T02:46:47.232Z,40.48
2023-04-05T02:48:28.530Z,40.80
2023-04-05T02:50:09.812Z,40.39
2023-04-05T02:51:51.167Z,40.77
2023-04-05T02:53:32.475Z,42.00
2023-04-05T02:55:13.772Z,41.40
2023-04-05T02:56:55.108Z,41.95
2023-04-05T02:58:36.373Z,42.84
2023-04-05T03:00:17.658Z,42.85
2023-04-05T03:01:58.972Z,42.20
2023-04-05T03:03:40.469Z,41.33
2023-04-05T03:05:21.924Z,41.20
2023-04-05T03:07:03.202Z,41.47
2023-04-05T03:08:44.511Z,40.90
2023-04-05T03:10:25.795Z,42.16
2023-04-05T03:12:07.086Z,41.75
2023-04-05T03:13:48.386Z,41.87
2023-04-05T03:15:29.653Z,41.71
2023-04-05T03:17:10.928Z,41.87
2023-04-05T03:18:52.228Z,42.05
2023-04-05T03:20:33.535Z,42.27
2023-04-05T03:22:14.825Z,42.20
2023-04-05T03:23:56.089Z,40.87
2023-04-05T03:25:37.412Z,41.17
2023-04-05T03:27:18.721Z,41.31
2023-04-05T03:29:00.020Z,41.35
2023-04-05T03:30:41.314Z,40.99
2023-04-05T03:32:22.622Z,39.83
2023-04-05T03:34:03.880Z,39.39
2023-04-05T03:35:45.207Z,40.05
2023-04-05T03:37:26.528Z,41.10
2023-04-05T03:39:07.879Z,40.53
2023-04-05T03:40:49.219Z,39.97
2023-04-05T03:42:30.518Z,40.25
2023-04-05T03:44:11.797Z,40.79
2023-04-05T03:45:53.170Z,40.14
2023-04-05T03:47:34.486Z,40.01
2023-04-05T03:49:15.825Z,39.74
2023-04-05T03:50:57.109Z,38.00
2023-04-05T03:52:38.413Z,38.76
2023-04-05T03:54:19.715Z,38.70
2023-04-05T03:56:01.021Z,38.88
2023-04-05T03:57:42.344Z,39.69
2023-04-05T03:59:23.701Z,39.21
2023-04-05T04:01:04.989Z,39.49
2023-04-05T04:02:46.338Z,39.14
2023-04-05T04:04:27.681Z,37.99
2023-04-05T04:06:09.068Z,41.49
2023-04-05T04:07:50.459Z,41.85
2023-04-05T04:09:31.874Z,40.13
2023-04-05T04:11:13.176Z,39.24
2023-04-05T04:12:54.469Z,39.44
2023-04-05T04:14:35.767Z,39.69
2023-04-05T04:16:17.106Z,39.49
2023-04-05T04:17:58.547Z,39.65
2023-04-05T04:19:39.857Z,39.22
2023-04-05T04:21:21.167Z,39.43
2023-04-05T04:23:02.470Z,39.43
2023-04-05T04:24:43.770Z,39.17
2023-04-05T04:26:25.122Z,39.61
2023-04-05T04:28:06.424Z,40.53
2023-04-05T04:29:47.695Z,40.15
2023-04-05T04:31:29.034Z,38.81
2023-04-05T04:33:10.417Z,38.92
2023-04-05T04:34:51.703Z,39.41
2023-04-05T04:36:32.986Z,39.17
2023-04-05T04:38:14.319Z,38.82
2023-04-05T04:39:55.626Z,38.76
2023-04-05T04:41:36.905Z,38.33
2023-04-05T04:43:18.226Z,37.91
2023-04-05T04:44:59.486Z,37.81
2023-04-05T04:46:40.834Z,38.07
2023-04-05T04:48:22.150Z,38.73
2023-04-05T04:50:03.448Z,38.51
2023-04-05T04:51:44.714Z,36.97
2023-04-05T04:53:26.019Z,37.41
2023-04-05T04:55:07.319Z,37.59
2023-04-05T04:56:48.635Z,37.55
2023-04-05T04:58:29.917Z,37.65
2023-04-05T05:00:11.260Z,37.37
2023-04-05T05:01:52.554Z,38.89
2023-04-05T05:03:33.860Z,39.12
2023-04-05T05:05:15.195Z,39.84
2023-04-05T05:06:56.532Z,40.32
2023-04-05T05:08:37.826Z,41.10
2023-04-05T05:10:19.117Z,41.47
2023-04-05T05:12:00.422Z,42.40
2023-04-05T05:13:41.720Z,42.37
2023-04-05T05:15:23.027Z,43.29
2023-04-05T05:17:04.335Z,42.49
2023-04-05T05:18:45.708Z,43.54
2023-04-05T05:20:27.102Z,42.24
2023-04-05T05:22:08.394Z,41.90
2023-04-05T05:23:49.677Z,41.58
2023-04-05T05:25:30.932Z,42.16
2023-04-05T05:27:12.227Z,42.43
2023-04-05T05:28:54.140Z,42.65
2023-04-05T05:30:35.469Z,41.86
2023-04-05T05:32:16.830Z,42.29
2023-04-05T05:33:58.143Z,39.56
2023-04-05T05:35:39.479Z,40.44
2023-04-05T05:37:20.851Z,41.66
2023-04-05T05:39:02.126Z,43.95
2023-04-05T05:40:43.543Z,41.45
2023-04-05T05:42:25.113Z,40.61
2023-04-05T05:44:06.367Z,41.33
2023-04-05T05:45:47.739Z,41.03
2023-04-05T05:47:29.176Z,40.97
2023-04-05T05:49:10.571Z,40.26
2023-04-05T05:50:52.063Z,40.34
2023-04-05T05:52:33.364Z,39.27
2023-04-05T05:54:14.644Z,38.92
2023-04-05T05:55:55.978Z,38.77
2023-04-05T05:57:37.283Z,39.40
2023-04-05T05:59:18.585Z,40.69
2023-04-05T06:01:00.168Z,39.71
2023-04-05T06:02:41.687Z,39.20
2023-04-05T06:04:23.173Z,39.02
2023-04-05T06:06:04.526Z,40.40
2023-04-05T06:07:45.881Z,39.90
2023-04-05T06:09:27.156Z,39.75
2023-04-05T06:11:08.428Z,41.52
2023-04-05T06:12:49.788Z,41.72
2023-04-05T06:14:31.143Z,41.60
2023-04-05T06:16:12.489Z,41.82
2023-04-05T06:17:53.886Z,40.98
2023-04-05T06:19:35.224Z,41.61
2023-04-05T06:21:16.629Z,42.27
2023-04-05T06:22:57.988Z,42.26
2023-04-05T06:24:39.285Z,43.56
2023-04-05T06:26:20.680Z,42.69
2023-04-05T06:28:02.062Z,42.59
2023-04-05T06:29:43.361Z,42.96
2023-04-05T06:31:24.681Z,41.92
2023-04-05T06:33:06.079Z,39.59
2023-04-05T06:34:47.422Z,39.79
2023-04-05T06:36:28.746Z,40.57
2023-04-05T06:38:10.054Z,41.39
2023-04-05T06:39:51.454Z,40.46
2023-04-05T06:41:32.778Z,37.62
2023-04-05T06:43:14.110Z,40.22
2023-04-05T06:44:55.414Z,40.31
2023-04-05T06:46:36.693Z,37.52
2023-04-05T06:48:17.998Z,39.93
2023-04-05T06:49:59.278Z,41.37
2023-04-05T06:51:40.761Z,42.04
2023-04-05T06:53:22.057Z,41.80
2023-04-05T06:55:03.362Z,40.68
2023-04-05T06:56:44.700Z,40.40
2023-04-05T06:58:26.010Z,37.24
2023-04-05T07:00:07.353Z,37.96
2023-04-05T07:01:48.696Z,38.91
2023-04-05T07:03:30.023Z,38.49
2023-04-05T07:05:11.399Z,37.29
2023-04-05T07:06:52.753Z,37.83
2023-04-05T07:08:34.127Z,37.53
2023-04-05T07:10:15.458Z,37.38
2023-04-05T07:11:56.770Z,39.26
2023-04-05T07:13:38.091Z,38.23
2023-04-05T07:15:19.367Z,37.94
2023-04-05T07:17:00.652Z,38.71
2023-04-05T07:18:41.970Z,37.87
2023-04-05T07:20:23.282Z,37.21
2023-04-05T07:22:04.566Z,37.04
2023-04-05T07:23:45.868Z,37.94
2023-04-05T07:25:27.163Z,37.88
2023-04-05T07:27:08.606Z,38.57
2023-04-05T07:28:49.912Z,36.94
2023-04-05T07:30:31.665Z,35.99
2023-04-05T07:32:13.301Z,37.44
2023-04-05T07:33:54.703Z,39.22
2023-04-05T07:35:36.238Z,39.33
2023-04-05T07:37:17.663Z,39.97
2023-04-05T07:38:58.946Z,38.99
2023-04-05T07:40:40.420Z,37.63
2023-04-05T07:42:22.128Z,36.65
2023-04-05T07:44:03.444Z,36.82
2023-04-05T07:45:44.738Z,38.03
2023-04-05T07:47:26.090Z,37.73
2023-04-05T07:49:08.634Z,35.81
2023-04-05T07:50:49.897Z,34.89
2023-04-05T07:52:31.171Z,34.58
2023-04-05T07:54:13.031Z,33.65
2023-04-05T07:55:54.317Z,33.65
2023-04-05T07:57:35.674Z,33.21
2023-04-05T07:59:17.057Z,34.26
2023-04-05T08:00:58.371Z,33.71
2023-04-05T08:02:39.909Z,33.57
2023-04-05T08:04:21.259Z,32.98
2023-04-05T08:06:02.538Z,31.99
2023-04-05T08:07:43.869Z,30.47
2023-04-05T08:09:25.135Z,29.45
2023-04-05T08:11:06.414Z,29.31
2023-04-05T08:12:47.779Z,28.37
2023-04-05T08:14:29.111Z,28.71
2023-04-05T08:16:10.465Z,28.20
2023-04-05T08:17:51.825Z,28.25
2023-04-05T08:19:33.143Z,28.86
2023-04-05T08:21:14.431Z,28.48
2023-04-05T08:22:55.794Z,30.42
2023-04-05T08:24:37.131Z,28.64
2023-04-05T08:26:18.479Z,27.48
2023-04-05T08:27:59.789Z,25.70
2023-04-05T08:29:41.089Z,26.30
2023-04-05T08:31:22.397Z,26.23
2023-04-05T08:33:03.845Z,26.78
2023-04-05T08:34:45.159Z,29.14
2023-04-05T08:36:26.497Z,32.10
2023-04-05T08:38:07.911Z,26.42
2023-04-05T08:39:49.272Z,28.09
2023-04-05T08:41:30.582Z,27.29
2023-04-05T08:43:11.977Z,25.71
2023-04-05T08:44:53.422Z,26.17
2023-04-05T08:46:34.795Z,25.87
2023-04-05T08:48:16.089Z,25.35
2023-04-05T08:49:57.392Z,25.90
2023-04-05T08:51:38.710Z,24.96
2023-04-05T08:53:20.068Z,25.25
2023-04-05T08:55:01.429Z,24.29
2023-04-05T08:56:42.912Z,24.15
2023-04-05T08:58:24.308Z,23.92
2023-04-05T09:00:05.738Z,24.00
2023-04-05T09:01:47.141Z,23.69
2023-04-05T09:03:28.622Z,23.03
2023-04-05T09:05:10.085Z,22.41
2023-04-05T09:06:51.500Z,22.55
2023-04-05T09:08:33.050Z,21.94
2023-04-05T09:10:14.363Z,22.74
2023-04-05T09:11:55.660Z,23.08
2023-04-05T09:13:37.013Z,22.55
2023-04-05T09:15:18.360Z,22.33
2023-04-05T09:16:59.704Z,20.98
2023-04-05T09:18:42.096Z,21.75
2023-04-05T09:20:25.246Z,22.06
2023-04-05T09:22:06.571Z,21.48
2023-04-05T09:23:47.897Z,21.90
2023-04-05T09:25:29.194Z,22.59
2023-04-05T09:27:10.547Z,22.50
2023-04-05T09:28:52.034Z,21.75
2023-04-05T09:30:33.418Z,22.07
2023-04-05T09:32:14.880Z,22.47
2023-04-05T09:33:56.195Z,21.91
2023-04-05T09:35:37.641Z,22.72
2023-04-05T09:37:19.116Z,21.59
2023-04-05T09:39:00.457Z,21.30
2023-04-05T09:40:42.039Z,21.68
2023-04-05T09:42:23.591Z,23.96
2023-04-05T09:44:05.106Z,24.90
2023-04-05T09:45:46.515Z,25.09
2023-04-05T09:47:28.041Z,21.91
2023-04-05T09:49:09.843Z,21.44
2023-04-05T09:50:51.340Z,21.46
2023-04-05T09:52:32.645Z,22.67
2023-04-05T09:54:13.948Z,20.76
2023-04-05T09:55:55.245Z,21.67
2023-04-05T09:57:36.554Z,21.72
2023-04-05T09:59:17.940Z,22.03
2023-04-05T10:01:13.515Z,22.30
2023-04-05T10:02:57.700Z,21.36
2023-04-05T10:04:39.146Z,20.66
2023-04-05T10:06:20.442Z,20.53
2023-04-05T10:08:01.872Z,21.33
2023-04-05T10:09:43.391Z,20.47
2023-04-05T10:11:24.757Z,21.31
2023-04-05T10:13:06.108Z,20.77
2023-04-05T10:14:47.482Z,21.14
2023-04-05T10:16:28.903Z,20.93
2023-04-05T10:18:10.724Z,21.93
2023-04-05T10:19:52.280Z,21.10
2023-04-05T10:21:33.747Z,21.38
2023-04-05T10:23:15.063Z,21.84
2023-04-05T10:24:56.518Z,21.93
2023-04-05T10:26:37.905Z,21.39
2023-04-05T10:28:19.198Z,21.69
2023-04-05T10:30:00.812Z,20.06
2023-04-05T10:31:42.398Z,19.70
2023-04-05T10:33:23.947Z,18.82
2023-04-05T10:35:05.466Z,21.47
2023-04-05T10:36:46.802Z,19.43
2023-04-05T10:38:28.260Z,20.76
2023-04-05T10:40:09.613Z,22.07
2023-04-05T10:41:51.011Z,19.92
2023-04-05T10:43:32.460Z,20.60
2023-04-05T10:45:13.888Z,19.97
2023-04-05T10:46:55.428Z,18.90
2023-04-05T10:48:37.016Z,19.88
2023-04-05T10:50:18.568Z,20.36
2023-04-05T10:52:00.046Z,19.85
2023-04-05T10:53:41.600Z,19.53
2023-04-05T10:55:22.971Z,20.03
2023-04-05T10:57:05.269Z,21.08
2023-04-05T10:58:48.406Z,20.76
2023-04-05T11:00:30.055Z,20.84
2023-04-05T11:02:11.797Z,19.53
2023-04-05T11:03:53.658Z,20.64
2023-04-05T11:05:35.188Z,18.96
2023-04-05T11:07:16.554Z,18.54
2023-04-05T11:08:57.937Z,18.74
2023-04-05T11:10:39.470Z,18.79
2023-04-05T11:12:20.920Z,18.62
2023-04-05T11:14:02.974Z,19.19
2023-04-05T11:15:44.522Z,18.35
2023-04-05T11:17:26.048Z,17.23
2023-04-05T11:19:07.576Z,16.93
2023-04-05T11:20:48.895Z,17.96
2023-04-05T11:22:30.190Z,18.16
2023-04-05T11:24:11.508Z,16.64
2023-04-05T11:25:52.846Z,18.12
2023-04-05T11:27:34.237Z,17.33
2023-04-05T11:29:15.602Z,18.21
2023-04-05T11:30:57.288Z,19.48
2023-04-05T11:32:38.784Z,19.22
2023-04-05T11:34:20.244Z,17.25
2023-04-05T11:36:01.589Z,16.68
2023-04-05T11:37:43.551Z,16.06
2023-04-05T11:39:25.122Z,18.24
2023-04-05T11:41:06.611Z,19.32
2023-04-05T11:42:48.289Z,18.75
2023-04-05T11:44:29.700Z,18.04
2023-04-05T11:46:11.087Z,19.15
2023-04-05T11:47:52.755Z,18.22
2023-04-05T11:49:34.394Z,17.71
2023-04-05T11:51:15.685Z,18.33
2023-04-05T11:52:57.014Z,18.07
2023-04-05T11:54:38.336Z,18.74
2023-04-05T11:56:19.819Z,18.85
2023-04-05T11:58:01.401Z,19.22
2023-04-05T11:59:42.893Z,20.21
2023-04-05T12:01:24.388Z,19.16
2023-04-05T12:03:05.951Z,19.41
2023-04-05T12:04:47.409Z,19.17
2023-04-05T12:06:28.748Z,20.16
2023-04-05T12:08:10.052Z,19.16
2023-04-05T12:09:51.339Z,18.86
2023-04-05T12:11:33.326Z,18.66
2023-04-05T12:13:15.140Z,16.91
2023-04-05T12:14:56.692Z,18.61
2023-04-05T12:16:38.035Z,16.84
2023-04-05T12:18:19.618Z,18.22
2023-04-05T12:20:01.591Z,19.29
2023-04-05T12:21:43.945Z,19.41
2023-04-05T12:23:26.080Z,20.24
2023-04-05T12:25:08.416Z,18.68
2023-04-05T12:26:50.815Z,18.93
2023-04-05T12:28:32.795Z,18.82
2023-04-05T12:30:15.242Z,16.75
2023-04-05T12:31:57.835Z,17.09
2023-04-05T12:33:39.945Z,18.01
2023-04-05T12:35:22.122Z,19.79
2023-04-05T12:37:03.894Z,20.08
2023-04-05T12:38:46.254Z,19.19
2023-04-05T12:40:29.504Z,19.09
2023-04-05T12:42:11.666Z,20.33
2023-04-05T12:43:54.754Z,20.56
2023-04-05T12:45:37.178Z,21.25
2023-04-05T12:47:19.468Z,20.66
2023-04-05T12:49:01.734Z,21.63
2023-04-05T12:50:44.239Z,20.76
2023-04-05T12:52:26.484Z,20.10
2023-04-05T12:54:08.670Z,20.97
2023-04-05T12:55:50.575Z,21.89
2023-04-05T12:57:32.328Z,21.56
2023-04-05T12:59:14.118Z,20.95
2023-04-05T13:00:56.098Z,21.95
2023-04-05T13:02:37.840Z,21.50
2023-04-05T13:04:19.703Z,22.01
2023-04-05T13:06:01.291Z,20.30
2023-04-05T13:07:42.664Z,21.27
2023-04-05T13:09:24.096Z,21.77
2023-04-05T13:11:05.708Z,20.84
2023-04-05T13:12:47.202Z,20.47
2023-04-05T13:14:28.515Z,21.78
2023-04-05T13:16:09.886Z,20.68
2023-04-05T13:17:51.622Z,21.01
2023-04-05T13:19:33.380Z,22.41
2023-04-05T13:21:14.952Z,21.94
2023-04-05T13:22:56.308Z,22.17
2023-04-05T13:24:37.628Z,20.76
2023-04-05T13:26:19.186Z,21.18
2023-04-05T13:28:00.945Z,21.30
2023-04-05T13:29:42.546Z,21.36
2023-04-05T13:31:24.287Z,22.04
2023-04-05T13:33:05.743Z,22.71
2023-04-05T13:34:47.310Z,22.23
2023-04-05T13:36:29.286Z,21.89
2023-04-05T13:38:10.923Z,21.71
2023-04-05T13:39:52.251Z,22.59
2023-04-05T13:41:33.560Z,22.46
2023-04-05T13:43:15.071Z,22.58
2023-04-05T13:44:56.578Z,21.82
2023-04-05T13:46:38.183Z,23.12
2023-04-05T13:48:19.932Z,23.76
2023-04-05T13:50:01.412Z,23.17
2023-04-05T13:51:42.740Z,22.75
2023-04-05T13:53:24.900Z,22.61
2023-04-05T13:55:07.222Z,23.21
2023-04-05T13:56:48.832Z,23.13
2023-04-05T13:58:30.133Z,23.66
2023-04-05T14:00:11.679Z,24.21
2023-04-05T14:01:53.180Z,23.75
2023-04-05T14:03:34.754Z,24.46
2023-04-05T14:05:16.222Z,24.64
2023-04-05T14:06:57.691Z,24.54
2023-04-05T14:08:39.156Z,24.57
2023-04-05T14:10:20.515Z,24.90
2023-04-05T14:12:01.815Z,24.80
2023-04-05T14:13:43.230Z,25.64
2023-04-05T14:15:24.584Z,25.25
2023-04-05T14:17:05.891Z,24.23
2023-04-05T14:18:47.397Z,24.98
2023-04-05T14:20:28.910Z,25.22
2023-04-05T14:22:10.387Z,25.96
2023-04-05T14:23:51.868Z,24.98
2023-04-05T14:25:33.201Z,24.59
2023-04-05T14:27:14.638Z,25.83
2023-04-05T14:28:56.167Z,25.52
2023-04-05T14:30:37.703Z,25.87
2023-04-05T14:32:19.117Z,25.04
2023-04-05T14:34:00.549Z,25.53
2023-04-05T14:35:41.953Z,25.56
2023-04-05T14:37:23.401Z,26.47
2023-04-05T14:39:04.909Z,25.86
2023-04-05T14:40:46.430Z,25.50
2023-04-05T14:42:41.025Z,26.19
2023-04-05T14:44:29.298Z,25.48
2023-04-05T14:46:10.823Z,26.25
2023-04-05T14:47:52.440Z,26.07
2023-04-05T14:49:33.744Z,26.43
2023-04-05T14:51:15.048Z,27.43
2023-04-05T14:52:56.554Z,27.64
2023-04-05T14:54:37.964Z,27.22
2023-04-05T14:56:19.253Z,28.08
2023-04-05T14:58:00.686Z,27.90
2023-04-05T14:59:42.417Z,27.93
2023-04-05T15:01:24.062Z,27.84
2023-04-05T15:03:05.496Z,27.70
2023-04-05T15:04:46.924Z,27.17
2023-04-05T15:06:28.188Z,27.92
2023-04-05T15:08:09.476Z,29.61
2023-04-05T15:09:50.840Z,29.95
2023-04-05T15:11:32.809Z,29.86
2023-04-05T15:13:14.360Z,30.07
2023-04-05T15:14:55.835Z,29.72
2023-04-05T15:16:37.356Z,29.53
2023-04-05T15:18:18.953Z,29.94
2023-04-05T15:20:00.591Z,30.53
2023-04-05T15:21:41.872Z,31.67
2023-04-05T15:23:23.174Z,32.60
2023-04-05T15:25:04.859Z,32.13
2023-04-05T15:26:46.431Z,32.18
2023-04-05T15:28:27.850Z,31.56
2023-04-05T15:30:09.165Z,31.23
2023-04-05T15:31:51.087Z,32.03
2023-04-05T15:33:32.809Z,31.74
2023-04-05T15:35:14.133Z,32.37
2023-04-05T15:36:55.434Z,32.30
2023-04-05T15:38:36.768Z,32.97
2023-04-05T15:40:18.179Z,33.94
2023-04-05T15:41:59.731Z,34.31
2023-04-05T15:43:41.263Z,34.75
2023-04-05T15:45:22.589Z,34.58
2023-04-05T15:47:03.908Z,35.11
2023-04-05T15:48:45.203Z,35.92
2023-04-05T15:50:26.552Z,36.06
2023-04-05T15:52:08.122Z,36.40
2023-04-05T15:53:49.964Z,36.07
2023-04-05T15:55:31.539Z,36.55
2023-04-05T15:57:12.843Z,35.90
2023-04-05T15:58:54.221Z,36.08
2023-04-05T16:00:35.653Z,35.10
2023-04-05T16:02:17.254Z,36.21
2023-04-05T16:03:59.222Z,36.61
2023-04-05T16:05:40.933Z,37.11
2023-04-05T16:07:22.267Z,37.09
2023-04-05T16:09:04.356Z,36.73
2023-04-05T16:10:45.901Z,37.03
2023-04-05T16:12:27.562Z,38.02
2023-04-05T16:14:10.952Z,38.43
2023-04-05T16:15:53.379Z,38.62
2023-04-05T16:17:35.134Z,38.80
2023-04-05T16:19:16.616Z,39.18
2023-04-05T16:20:57.943Z,39.67
2023-04-05T16:22:39.223Z,40.44
2023-04-05T16:24:20.535Z,39.76
2023-04-05T16:26:01.957Z,40.69
2023-04-05T16:27:43.953Z,40.18
2023-04-05T16:29:25.585Z,39.16
2023-04-05T16:31:06.867Z,38.83
2023-04-05T16:32:48.198Z,39.03
2023-04-05T16:34:29.488Z,37.49
2023-04-05T16:36:10.890Z,38.40
2023-04-05T16:37:52.186Z,38.11
2023-04-05T16:39:33.536Z,39.16
2023-04-05T16:41:15.514Z,39.17
2023-04-05T16:42:56.945Z,38.76
2023-04-05T16:44:38.487Z,38.97
2023-04-05T16:46:20.045Z,39.46
2023-04-05T16:48:01.564Z,39.69
2023-04-05T16:49:42.892Z,39.14
2023-04-05T16:51:24.396Z,40.87
2023-04-05T16:53:05.905Z,40.12
2023-04-05T16:54:47.444Z,41.11
2023-04-05T16:56:28.766Z,41.28
2023-04-05T16:58:10.292Z,40.32
2023-04-05T16:59:52.105Z,40.70
2023-04-05T17:01:33.701Z,41.54
2023-04-05T17:03:15.268Z,41.55
2023-04-05T17:04:56.686Z,40.32
2023-04-05T17:06:37.991Z,40.45
2023-04-05T17:08:19.295Z,41.04
2023-04-05T17:10:00.634Z,39.88
2023-04-05T17:11:42.871Z,40.29
2023-04-05T17:13:24.276Z,40.97
2023-04-05T17:15:05.588Z,41.04
2023-04-05T17:16:47.063Z,41.15
2023-04-05T17:18:28.434Z,40.01
2023-04-05T17:20:09.753Z,39.33
2023-04-05T17:21:51.739Z,38.85
2023-04-05T17:23:33.406Z,39.13
2023-04-05T17:25:14.966Z,38.12
2023-04-05T17:26:56.273Z,38.53
2023-04-05T17:28:37.642Z,38.17
2023-04-05T17:30:18.951Z,38.79
2023-04-05T17:32:00.228Z,39.17
2023-04-05T17:33:42.164Z,39.23
2023-04-05T17:35:23.869Z,39.80
2023-04-05T17:37:05.315Z,39.75
2023-04-05T17:38:46.582Z,40.25
2023-04-05T17:40:28.208Z,39.99
2023-04-05T17:42:09.811Z,39.51
2023-04-05T17:43:51.303Z,39.95
2023-04-05T17:45:32.867Z,40.20
2023-04-05T17:47:14.212Z,40.50
2023-04-05T17:48:55.556Z,38.86
2023-04-05T17:50:37.614Z,37.70
2023-04-05T17:52:19.106Z,37.91
2023-04-05T17:54:00.475Z,37.61
2023-04-05T17:55:41.823Z,37.54
2023-04-05T17:57:23.116Z,38.06
2023-04-05T17:59:04.513Z,37.67
2023-04-05T18:00:46.160Z,37.90
2023-04-05T18:02:27.525Z,36.99
2023-04-05T18:04:11.886Z,37.40
2023-04-05T18:05:53.976Z,37.36
2023-04-05T18:07:35.495Z,37.50
2023-04-05T18:09:17.048Z,38.24
2023-04-05T18:10:58.724Z,37.32
2023-04-05T18:12:40.214Z,37.26
2023-04-05T18:14:21.533Z,38.09
2023-04-05T18:16:03.133Z,37.81
2023-04-05T18:17:44.639Z,37.26
2023-04-05T18:19:26.229Z,36.90
2023-04-05T18:21:07.611Z,36.14
2023-04-05T18:22:49.086Z,36.61
2023-04-05T18:24:30.556Z,35.66
2023-04-05T18:26:11.864Z,35.65
2023-04-05T18:27:53.219Z,35.73
2023-04-05T18:29:34.838Z,35.81
2023-04-05T18:31:16.144Z,35.53
2023-04-05T18:32:57.535Z,34.67
2023-04-05T18:34:39.116Z,35.47
2023-04-05T18:36:20.633Z,35.18
2023-04-05T18:38:02.364Z,34.09
2023-04-05T18:39:43.859Z,33.86
2023-04-05T18:41:25.146Z,34.81
2023-04-05T18:43:06.633Z,33.85
2023-04-05T18:44:48.321Z,33.33
2023-04-05T18:46:30.104Z,33.23
2023-04-05T18:48:11.577Z,33.45
2023-04-05T18:49:53.319Z,34.12
2023-04-05T18:51:34.782Z,33.88
2023-04-05T18:53:16.049Z,34.11
2023-04-05T18:54:57.360Z,34.08
2023-04-05T18:56:38.743Z,33.62
2023-04-05T18:58:20.069Z,33.05
2023-04-05T19:00:01.998Z,32.86
2023-04-05T19:01:43.822Z,32.84
2023-04-05T19:03:25.544Z,32.92
2023-04-05T19:05:07.222Z,33.45
2023-04-05T19:06:48.699Z,33.68
2023-04-05T19:08:30.567Z,34.28
2023-04-05T19:10:12.088Z,34.54
2023-04-05T19:11:53.593Z,34.50
2023-04-05T19:13:35.111Z,34.47
2023-04-05T19:15:16.713Z,35.00
2023-04-05T19:16:58.174Z,35.53
2023-04-05T19:18:39.452Z,35.04
2023-04-05T19:20:20.751Z,35.17
2023-04-05T19:22:02.033Z,35.34
2023-04-05T19:23:43.323Z,35.04
2023-04-05T19:25:25.345Z,33.67
2023-04-05T19:27:06.953Z,33.07
2023-04-05T19:28:48.255Z,34.07
2023-04-05T19:30:29.607Z,33.30
2023-04-05T19:32:11.425Z,33.09
2023-04-05T19:33:52.856Z,33.22
2023-04-05T19:35:34.156Z,34.35
2023-04-05T19:37:15.726Z,33.79
2023-04-05T19:38:57.230Z,33.16
2023-04-05T19:40:38.545Z,33.30
2023-04-05T19:42:20.086Z,33.22
2023-04-05T19:44:01.589Z,33.95
2023-04-05T19:45:42.925Z,33.66
2023-04-05T19:47:24.279Z,33.34
2023-04-05T19:49:05.918Z,33.48
2023-04-05T19:50:50.112Z,33.13
2023-04-05T19:52:31.465Z,32.95
2023-04-05T19:54:12.793Z,32.66
2023-04-05T19:55:54.303Z,33.43
2023-04-05T19:57:35.926Z,33.23
2023-04-05T19:59:17.449Z,34.68
2023-04-05T20:00:59.114Z,35.09
2023-04-05T20:02:40.631Z,35.53
2023-04-05T20:04:21.947Z,35.32
2023-04-05T20:06:03.432Z,34.86
2023-04-05T20:07:44.884Z,34.83
2023-04-05T20:09:26.286Z,34.98
2023-04-05T20:11:07.792Z,35.39
2023-04-05T20:12:49.260Z,35.18
2023-04-05T20:14:30.635Z,35.06
2023-04-05T20:16:12.286Z,36.35
2023-04-05T20:17:53.743Z,36.68
2023-04-05T20:19:35.181Z,36.46
2023-04-05T20:21:16.570Z,35.03
2023-04-05T20:22:58.058Z,35.72
2023-04-05T20:24:39.373Z,35.89
2023-04-05T20:26:20.787Z,35.28
2023-04-05T20:28:02.275Z,34.60
2023-04-05T20:29:43.547Z,36.09
2023-04-05T20:31:27.902Z,35.94
2023-04-05T20:33:09.245Z,38.16
2023-04-05T20:34:50.636Z,38.27
2023-04-05T20:36:32.167Z,38.10
2023-04-05T20:38:13.764Z,37.57
2023-04-05T20:39:55.262Z,38.00
2023-04-05T20:41:36.597Z,39.21
2023-04-05T20:43:17.892Z,38.85
2023-04-05T20:44:59.432Z,38.55
2023-04-05T20:46:40.867Z,39.28
2023-04-05T20:48:22.446Z,38.32
2023-04-05T20:50:04.033Z,37.45
2023-04-05T20:51:45.520Z,37.98
2023-04-05T20:53:26.842Z,38.38
2023-04-05T20:55:08.185Z,37.60
2023-04-05T20:56:49.586Z,37.61
2023-04-05T20:58:31.104Z,37.37
2023-04-05T21:00:12.762Z,39.05
2023-04-05T21:01:54.194Z,38.42
2023-04-05T21:03:35.754Z,39.20
2023-04-05T21:05:17.388Z,39.08
2023-04-05T21:07:00.170Z,39.35
2023-04-05T21:08:41.484Z,39.53
2023-04-05T21:10:22.773Z,38.41
2023-04-05T21:12:04.104Z,37.44
2023-04-05T21:13:45.652Z,36.49
2023-04-05T21:15:27.156Z,38.06
2023-04-05T21:17:08.506Z,39.80
2023-04-05T21:18:50.079Z,40.15
2023-04-05T21:20:31.638Z,39.39
2023-04-05T21:22:13.050Z,39.64
2023-04-05T21:23:54.737Z,39.68
2023-04-05T21:25:36.174Z,39.59
2023-04-05T21:27:17.695Z,37.88
2023-04-05T21:28:59.363Z,38.24
2023-04-05T21:30:40.741Z,37.79
2023-04-05T21:32:22.007Z,38.01
2023-04-05T21:34:03.376Z,38.14
2023-04-05T21:35:44.715Z,39.35
2023-04-05T21:37:26.028Z,38.22
2023-04-05T21:39:07.441Z,37.92
2023-04-05T21:40:49.041Z,37.48
2023-04-05T21:42:30.351Z,36.32
2023-04-05T21:44:11.663Z,36.48
2023-04-05T21:45:53.173Z,37.09
2023-04-05T21:47:34.526Z,37.59